Terminal Aerodrome Forecast
Issued by NWS Atlanta, GA

Home | Current Version | Previous Version | Text Only | Print | Product List | Glossary On
Versions: 1 2 3 4 5 6 7 8 9 10 11 12 13 14 15 16 17
000
FTUS42 KFFC 021130
TAFCSG
TAF
KCSG 021130Z 0212/0312 00000KT 1/4SM +DZ FG VV001
     FM021400 VRB03KT 1SM -DZ BR OVC005
     FM021600 00000KT 6SM BR OVC008
     FM022300 01003KT P6SM OVC012
     FM030000 02003KT P6SM OVC020
     FM030500 08003KT 3SM BR OVC012
     FM030900 12003KT 3SM BR OVC008=

USA.gov is the U.S. government's official web portal to all federal, state and local government web resources and services.